createdAt,value
2018-07-26T00:00:03.606Z,100902.00
2018-07-26T00:02:29.741Z,100905.86
2018-07-26T00:04:55.779Z,100900.17
2018-07-26T00:07:21.813Z,100899.67
2018-07-26T00:09:47.854Z,100894.42
2018-07-26T00:12:13.884Z,100896.52
2018-07-26T00:14:39.945Z,100893.37
2018-07-26T00:17:05.988Z,100894.53
2018-07-26T00:19:32.019Z,100894.07
2018-07-26T00:21:58.050Z,100891.88
2018-07-26T00:24:24.091Z,100889.21
2018-07-26T00:26:50.222Z,100898.23
2018-07-26T00:29:16.253Z,100900.36
2018-07-26T00:31:42.294Z,100892.94
2018-07-26T00:34:08.336Z,100894.63
2018-07-26T00:36:34.368Z,100898.05
2018-07-26T00:39:00.402Z,100907.90
2018-07-26T00:41:26.505Z,100906.20
2018-07-26T00:43:52.511Z,100905.77
2018-07-26T00:46:18.550Z,100908.77
2018-07-26T00:48:44.614Z,100906.17
2018-07-26T00:51:10.653Z,100904.83
2018-07-26T00:53:36.690Z,100908.27
2018-07-26T00:57:24.702Z,100901.77
2018-07-26T00:59:50.804Z,100900.88
2018-07-26T01:02:16.843Z,100902.06
2018-07-26T01:04:42.874Z,100898.96
2018-07-26T01:07:08.905Z,100898.05
2018-07-26T01:09:35.005Z,100899.32
2018-07-26T01:12:01.076Z,100895.75
2018-07-26T01:14:27.137Z,100902.63
2018-07-26T01:16:53.181Z,100896.58
2018-07-26T01:19:19.214Z,100896.03
2018-07-26T01:21:45.241Z,100896.86
2018-07-26T01:24:11.273Z,100898.11
2018-07-26T01:26:37.306Z,100898.98
2018-07-26T01:29:03.345Z,100893.32
2018-07-26T01:31:29.381Z,100890.26
2018-07-26T01:33:55.430Z,100888.92
2018-07-26T01:36:21.467Z,100882.44
2018-07-26T01:38:47.497Z,100884.09
2018-07-26T01:41:13.525Z,100884.95
2018-07-26T01:43:39.625Z,100886.60
2018-07-26T01:46:05.658Z,100888.73
2018-07-26T01:48:31.690Z,100887.82
2018-07-26T01:50:57.721Z,100889.98
2018-07-26T01:53:23.863Z,100882.20
2018-07-26T01:55:49.901Z,100881.30
2018-07-26T01:58:16.276Z,100884.72
2018-07-26T02:00:42.309Z,100880.39
2018-07-26T02:03:08.345Z,100883.85
2018-07-26T02:05:34.378Z,100880.39
2018-07-26T02:08:00.414Z,100879.45
2018-07-26T02:10:26.448Z,100885.85
2018-07-26T02:12:52.485Z,100879.33
2018-07-26T02:15:18.522Z,100879.29
2018-07-26T02:17:44.553Z,100882.23
2018-07-26T02:20:10.595Z,100886.90
2018-07-26T02:22:36.646Z,100888.47
2018-07-26T02:25:02.710Z,100891.84
2018-07-26T02:27:28.742Z,100888.25
2018-07-26T02:29:54.794Z,100890.71
2018-07-26T02:32:20.835Z,100891.53
2018-07-26T02:34:46.873Z,100897.53
2018-07-26T02:37:12.910Z,100902.72
2018-07-26T02:39:38.954Z,100894.55
2018-07-26T02:42:04.987Z,100892.78
2018-07-26T02:44:31.040Z,100895.72
2018-07-26T02:46:57.186Z,100894.80
2018-07-26T02:49:23.226Z,100896.39
2018-07-26T02:51:49.269Z,100894.23
2018-07-26T02:54:15.301Z,100897.21
2018-07-26T02:56:41.378Z,100900.66
2018-07-26T02:59:07.409Z,100896.26
2018-07-26T03:01:33.470Z,100899.58
2018-07-26T03:03:59.550Z,100898.28
2018-07-26T03:06:25.586Z,100901.30
2018-07-26T03:08:51.632Z,100902.16
2018-07-26T03:11:17.679Z,100902.54
2018-07-26T03:13:43.714Z,100896.84
2018-07-26T03:16:10.238Z,100895.94
2018-07-26T03:18:36.319Z,100905.91
2018-07-26T03:21:57.086Z,100905.00
2018-07-26T03:24:23.884Z,100910.60
2018-07-26T03:26:50.356Z,100897.61
2018-07-26T03:29:16.388Z,100896.65
2018-07-26T03:31:42.427Z,100898.28
2018-07-26T03:34:08.465Z,100896.55
2018-07-26T03:36:34.498Z,100894.73
2018-07-26T03:39:00.536Z,100892.92
2018-07-26T03:41:26.577Z,100900.30
2018-07-26T03:43:52.610Z,100893.83
2018-07-26T03:46:18.641Z,100891.71
2018-07-26T03:48:44.678Z,100889.89
2018-07-26T03:51:10.758Z,100891.08
2018-07-26T03:53:36.811Z,100891.47
2018-07-26T03:56:02.838Z,100896.12
2018-07-26T03:58:28.866Z,100898.65
2018-07-26T04:00:54.898Z,100892.61
2018-07-26T04:03:20.942Z,100893.96
2018-07-26T04:05:47.070Z,100894.05
2018-07-26T04:08:13.105Z,100898.03
2018-07-26T04:10:39.139Z,100900.68
2018-07-26T04:13:05.176Z,100893.81
2018-07-26T04:15:31.211Z,100904.61
2018-07-26T04:17:57.250Z,100902.45
2018-07-26T04:20:23.281Z,100903.78
2018-07-26T04:22:49.318Z,100899.00
2018-07-26T04:25:15.353Z,100899.96
2018-07-26T04:27:41.394Z,100897.80
2018-07-26T04:30:07.430Z,100900.81
2018-07-26T04:34:59.550Z,100903.55
2018-07-26T04:37:25.586Z,100904.45
2018-07-26T04:39:51.615Z,100905.28
2018-07-26T04:42:17.653Z,100902.73
2018-07-26T04:44:43.689Z,100901.59
2018-07-26T04:47:09.722Z,100902.06
2018-07-26T04:49:35.836Z,100906.95
2018-07-26T04:52:01.894Z,100904.89
2018-07-26T04:54:27.983Z,100904.16
2018-07-26T04:56:54.019Z,100899.98
2018-07-26T04:59:20.050Z,100911.77
2018-07-26T05:01:46.110Z,100907.94
2018-07-26T05:04:12.146Z,100907.55
2018-07-26T05:06:38.213Z,100909.36
2018-07-26T05:09:04.242Z,100907.68
2018-07-26T05:11:30.282Z,100912.52
2018-07-26T05:13:56.321Z,100906.00
2018-07-26T05:16:22.355Z,100911.27
2018-07-26T05:18:48.393Z,100911.78
2018-07-26T05:21:14.438Z,100911.83
2018-07-26T05:23:40.474Z,100915.40
2018-07-26T05:26:06.510Z,100915.97
2018-07-26T05:28:32.542Z,100916.48
2018-07-26T05:30:58.577Z,100920.49
2018-07-26T05:33:24.618Z,100914.09
2018-07-26T05:35:50.783Z,100911.63
2018-07-26T05:38:16.819Z,100914.30
2018-07-26T05:40:42.846Z,100910.45
2018-07-26T05:43:08.938Z,100913.20
2018-07-26T05:45:35.013Z,100916.78
2018-07-26T05:48:01.074Z,100916.50
2018-07-26T05:50:27.106Z,100920.11
2018-07-26T05:52:53.168Z,100918.48
2018-07-26T05:55:19.197Z,100924.66
2018-07-26T05:57:45.251Z,100926.06
2018-07-26T06:00:11.348Z,100921.91
2018-07-26T06:02:37.370Z,100915.59
2018-07-26T06:05:03.446Z,100926.62
2018-07-26T06:07:29.539Z,100923.72
2018-07-26T06:09:55.612Z,100922.62
2018-07-26T06:12:21.669Z,100925.80
2018-07-26T06:14:47.706Z,100925.09
2018-07-26T06:17:13.826Z,100923.11
2018-07-26T06:19:39.835Z,100921.58
2018-07-26T06:22:05.890Z,100921.77
2018-07-26T06:24:31.925Z,100924.52
2018-07-26T06:26:58.021Z,100927.67
2018-07-26T06:29:24.151Z,100931.73
2018-07-26T06:31:50.189Z,100936.19
2018-07-26T06:34:16.231Z,100923.34
2018-07-26T06:36:42.321Z,100920.84
2018-07-26T06:39:08.357Z,100919.67
2018-07-26T06:41:34.390Z,100920.17
2018-07-26T06:44:00.464Z,100912.48
2018-07-26T06:46:26.498Z,100921.28
2018-07-26T06:48:52.530Z,100920.91
2018-07-26T06:51:18.570Z,100922.75
2018-07-26T06:53:44.598Z,100922.83
2018-07-26T06:56:10.629Z,100925.98
2018-07-26T06:58:36.713Z,100924.75
2018-07-26T07:01:02.742Z,100927.42
2018-07-26T07:03:28.780Z,100921.37
2018-07-26T07:05:54.826Z,100930.14
2018-07-26T07:08:20.878Z,100926.73
2018-07-26T07:10:46.924Z,100921.14
2018-07-26T07:13:12.961Z,100919.02
2018-07-26T07:15:38.997Z,100915.99
2018-07-26T07:18:05.047Z,100918.63
2018-07-26T07:20:31.119Z,100915.58
2018-07-26T07:22:57.146Z,100917.83
2018-07-26T07:25:23.185Z,100916.08
2018-07-26T07:27:49.272Z,100914.33
2018-07-26T07:30:15.281Z,100917.38
2018-07-26T07:32:41.324Z,100912.13
2018-07-26T07:35:07.356Z,100909.09
2018-07-26T07:37:33.396Z,100900.35
2018-07-26T07:39:59.434Z,100902.48
2018-07-26T07:42:25.474Z,100902.86
2018-07-26T07:44:51.532Z,100906.73
2018-07-26T07:47:17.625Z,100903.64
2018-07-26T07:49:43.669Z,100900.96
2018-07-26T07:52:09.705Z,100899.58
2018-07-26T07:54:35.739Z,100898.64
2018-07-26T07:57:01.768Z,100901.59
2018-07-26T07:59:27.824Z,100896.66
2018-07-26T08:01:53.866Z,100899.67
2018-07-26T08:04:19.902Z,100897.38
2018-07-26T08:06:45.997Z,100897.69
2018-07-26T08:09:12.064Z,100899.33
2018-07-26T08:11:38.106Z,100891.33
2018-07-26T08:14:04.138Z,100899.10
2018-07-26T08:16:30.170Z,100900.73
2018-07-26T08:18:56.218Z,100896.22
2018-07-26T08:21:23.433Z,100901.77
2018-07-26T08:23:49.555Z,100893.76
2018-07-26T08:26:15.594Z,100895.84
2018-07-26T08:28:41.638Z,100896.55
2018-07-26T08:31:07.682Z,100889.42
2018-07-26T08:33:33.751Z,100891.42
2018-07-26T08:35:59.782Z,100890.36
2018-07-26T08:38:25.849Z,100890.63
2018-07-26T08:40:51.894Z,100887.44
2018-07-26T08:43:17.937Z,100893.00
2018-07-26T08:45:43.978Z,100895.45
2018-07-26T08:48:10.052Z,100892.23
2018-07-26T08:50:36.117Z,100891.58
2018-07-26T08:53:02.220Z,100894.70
2018-07-26T08:55:28.306Z,100894.33
2018-07-26T08:57:54.385Z,100892.16
2018-07-26T09:00:20.429Z,100888.30
2018-07-26T09:02:46.585Z,100888.82
2018-07-26T09:05:13.970Z,100885.40
2018-07-26T09:07:40.072Z,100887.27
2018-07-26T09:10:06.114Z,100882.59
2018-07-26T09:12:32.188Z,100883.18
2018-07-26T09:14:58.230Z,100886.80
2018-07-26T09:17:24.314Z,100883.88
2018-07-26T09:19:50.379Z,100879.67
2018-07-26T09:22:16.450Z,100881.53
2018-07-26T09:24:42.489Z,100882.09
2018-07-26T09:27:08.899Z,100883.03
2018-07-26T09:29:35.433Z,100888.44
2018-07-26T09:32:01.501Z,100876.31
2018-07-26T09:34:27.580Z,100877.81
2018-07-26T09:36:53.630Z,100877.45
2018-07-26T09:39:19.677Z,100876.77
2018-07-26T09:41:45.734Z,100870.72
2018-07-26T09:44:11.818Z,100873.06
2018-07-26T09:46:38.183Z,100869.64
2018-07-26T09:49:04.222Z,100869.83
2018-07-26T09:51:30.278Z,100866.02
2018-07-26T09:53:56.342Z,100868.42
2018-07-26T09:56:22.450Z,100862.78
2018-07-26T09:58:48.541Z,100865.02
2018-07-26T10:01:14.627Z,100859.34
2018-07-26T10:03:40.766Z,100859.89
2018-07-26T10:06:06.847Z,100857.20
2018-07-26T10:08:32.943Z,100854.81
2018-07-26T10:10:59.368Z,100851.19
2018-07-26T10:13:25.490Z,100854.94
2018-07-26T10:15:52.609Z,100849.76
2018-07-26T10:18:18.671Z,100848.44
2018-07-26T10:20:44.711Z,100848.59
2018-07-26T10:23:10.778Z,100845.62
2018-07-26T10:25:36.827Z,100843.88
2018-07-26T10:28:02.901Z,100847.72
2018-07-26T10:30:29.018Z,100847.08
2018-07-26T10:32:55.060Z,100846.41
2018-07-26T10:35:21.142Z,100835.02
2018-07-26T10:37:47.234Z,100838.94
2018-07-26T10:40:13.334Z,100838.69
2018-07-26T10:42:39.381Z,100834.28
2018-07-26T10:45:05.420Z,100829.34
2018-07-26T10:47:31.507Z,100823.87
2018-07-26T10:49:57.921Z,100826.95
2018-07-26T10:52:23.926Z,100826.64
2018-07-26T10:54:50.014Z,100826.19
2018-07-26T10:57:16.067Z,100827.98
2018-07-26T10:59:42.143Z,100821.73
2018-07-26T11:02:08.200Z,100817.78
2018-07-26T11:04:34.234Z,100825.79
2018-07-26T11:07:00.656Z,100819.14
2018-07-26T11:09:26.706Z,100820.98
2018-07-26T11:11:52.743Z,100822.66
2018-07-26T11:14:18.797Z,100818.58
2018-07-26T11:16:45.161Z,100815.14
2018-07-26T11:19:11.279Z,100817.34
2018-07-26T11:21:37.326Z,100808.75
2018-07-26T11:24:03.382Z,100814.81
2018-07-26T11:26:32.888Z,100810.36
2018-07-26T11:28:58.981Z,100809.44
2018-07-26T11:31:25.052Z,100806.31
2018-07-26T11:33:51.121Z,100802.33
2018-07-26T11:36:17.286Z,100798.17
2018-07-26T11:38:43.394Z,100796.39
2018-07-26T11:41:09.448Z,100801.00
2018-07-26T11:43:35.549Z,100787.25
2018-07-26T11:46:01.646Z,100800.03
2018-07-26T11:48:27.708Z,100798.03
2018-07-26T11:50:54.498Z,100796.55
2018-07-26T11:53:20.903Z,100790.20
2018-07-26T11:55:46.971Z,100795.25
2018-07-26T11:58:13.030Z,100786.95
2018-07-26T12:00:39.414Z,100781.35
2018-07-26T12:03:05.472Z,100780.67
2018-07-26T12:05:31.523Z,100780.05
2018-07-26T12:07:57.605Z,100783.83
2018-07-26T12:10:23.690Z,100780.06
2018-07-26T12:12:51.290Z,100780.98
2018-07-26T12:15:17.370Z,100776.09
2018-07-26T12:17:43.510Z,100779.74
2018-07-26T12:20:09.571Z,100772.70
2018-07-26T12:22:35.636Z,100781.48
2018-07-26T12:25:01.779Z,100784.42
2018-07-26T12:27:27.832Z,100778.67
2018-07-26T12:29:54.020Z,100776.62
2018-07-26T12:32:20.069Z,100781.72
2018-07-26T12:34:46.111Z,100774.34
2018-07-26T12:37:12.159Z,100764.28
2018-07-26T12:39:38.236Z,100768.01
2018-07-26T12:42:04.300Z,100764.16
2018-07-26T12:44:30.383Z,100767.84
2018-07-26T12:46:56.578Z,100765.00
2018-07-26T12:49:26.636Z,100760.88
2018-07-26T12:51:52.784Z,100758.10
2018-07-26T12:54:18.969Z,100763.84
2018-07-26T12:56:45.312Z,100762.58
2018-07-26T12:59:11.419Z,100753.90
2018-07-26T13:01:37.586Z,100751.66
2018-07-26T13:04:03.625Z,100751.79
2018-07-26T13:06:29.682Z,100752.69
2018-07-26T13:08:56.050Z,100747.30
2018-07-26T13:11:22.082Z,100742.05
2018-07-26T13:13:48.155Z,100745.20
2018-07-26T13:16:14.193Z,100740.59
2018-07-26T13:18:40.258Z,100736.48
2018-07-26T13:21:06.310Z,100730.09
2018-07-26T13:23:32.429Z,100731.43
2018-07-26T13:25:58.680Z,100724.69
2018-07-26T13:28:24.719Z,100728.78
2018-07-26T13:30:50.837Z,100727.90
2018-07-26T13:33:20.833Z,100724.72
2018-07-26T13:35:46.883Z,100721.26
2018-07-26T13:38:12.947Z,100727.60
2018-07-26T13:40:38.983Z,100718.24
2018-07-26T13:43:05.023Z,100722.49
2018-07-26T13:45:31.120Z,100727.56
2018-07-26T13:47:57.158Z,100723.28
2018-07-26T13:50:23.301Z,100714.03
2018-07-26T13:52:49.339Z,100712.98
2018-07-26T13:55:15.695Z,100710.19
2018-07-26T13:57:41.740Z,100702.37
2018-07-26T14:00:07.780Z,100705.44
2018-07-26T14:02:33.839Z,100693.64
2018-07-26T14:04:59.877Z,100705.13
2018-07-26T14:07:25.932Z,100704.58
2018-07-26T14:09:52.326Z,100704.09
2018-07-26T14:12:18.277Z,100696.82
2018-07-26T14:14:44.310Z,100695.62
2018-07-26T14:17:10.366Z,100684.75
2018-07-26T14:19:36.760Z,100680.83
2018-07-26T14:22:02.838Z,100675.88
2018-07-26T14:24:28.900Z,100684.58
2018-07-26T14:26:55.978Z,100673.66
2018-07-26T14:29:22.035Z,100674.20
2018-07-26T14:31:48.084Z,100673.22
2018-07-26T14:34:14.141Z,100672.50
2018-07-26T14:36:40.205Z,100678.08
2018-07-26T14:39:06.534Z,100679.56
2018-07-26T14:41:32.570Z,100669.59
2018-07-26T14:43:58.658Z,100668.88
2018-07-26T14:46:24.718Z,100657.36
2018-07-26T14:48:51.252Z,100648.72
2018-07-26T14:51:17.321Z,100652.02
2018-07-26T14:53:43.728Z,100651.31
2018-07-26T14:56:09.795Z,100651.39
2018-07-26T14:58:35.960Z,100646.51
2018-07-26T15:01:02.025Z,100643.56
2018-07-26T15:03:28.438Z,100643.39
2018-07-26T15:05:54.498Z,100645.12
2018-07-26T15:08:20.548Z,100643.64
2018-07-26T15:10:46.622Z,100635.98
2018-07-26T15:13:12.674Z,100638.39
2018-07-26T15:15:38.762Z,100638.08
2018-07-26T15:18:04.793Z,100641.48
2018-07-26T15:20:30.932Z,100638.48
2018-07-26T15:22:56.978Z,100640.17
2018-07-26T15:25:23.046Z,100636.98
2018-07-26T15:27:49.381Z,100635.59
2018-07-26T15:30:15.455Z,100626.81
2018-07-26T15:32:41.503Z,100628.77
2018-07-26T15:35:07.535Z,100634.35
2018-07-26T15:37:33.597Z,100631.84
2018-07-26T15:39:59.653Z,100630.33
2018-07-26T15:42:26.008Z,100623.36
2018-07-26T15:44:52.080Z,100625.66
2018-07-26T15:47:18.160Z,100619.16
2018-07-26T15:49:44.210Z,100614.00
2018-07-26T15:52:10.250Z,100617.25
2018-07-26T15:54:36.634Z,100610.66
2018-07-26T15:57:02.907Z,100611.34
2018-07-26T15:59:28.978Z,100609.86
2018-07-26T16:01:55.031Z,100605.89
2018-07-26T16:04:21.091Z,100596.63
2018-07-26T16:06:48.256Z,100593.61
2018-07-26T16:09:14.645Z,100584.38
2018-07-26T16:11:40.686Z,100592.00
2018-07-26T16:14:07.926Z,100583.87
2018-07-26T16:16:33.965Z,100589.05
2018-07-26T16:19:00.012Z,100583.70
2018-07-26T16:21:26.067Z,100577.58
2018-07-26T16:23:52.107Z,100582.36
2018-07-26T16:26:18.172Z,100578.19
2018-07-26T16:28:44.325Z,100578.73
2018-07-26T16:31:10.679Z,100561.27
2018-07-26T16:33:36.733Z,100569.52
2018-07-26T16:36:02.800Z,100568.77
2018-07-26T16:38:28.843Z,100555.61
2018-07-26T16:40:54.894Z,100565.09
2018-07-26T16:43:20.929Z,100560.35
2018-07-26T16:45:46.987Z,100557.88
2018-07-26T16:48:13.093Z,100556.27
2018-07-26T16:50:39.153Z,100560.12
2018-07-26T16:53:05.209Z,100557.06
2018-07-26T16:55:31.288Z,100552.70
2018-07-26T16:57:57.371Z,100549.58
2018-07-26T17:00:23.475Z,100551.56
2018-07-26T17:02:49.571Z,100557.67
2018-07-26T17:05:15.661Z,100558.09
2018-07-26T17:07:41.817Z,100555.70
2018-07-26T17:10:07.990Z,100562.79
2018-07-26T17:12:34.061Z,100563.08
2018-07-26T17:15:00.128Z,100558.09
2018-07-26T17:17:26.167Z,100559.66
2018-07-26T17:19:52.590Z,100557.23
2018-07-26T17:22:18.642Z,100566.03
2018-07-26T17:24:44.732Z,100565.20
2018-07-26T17:27:11.153Z,100556.05
2018-07-26T17:29:37.192Z,100557.50
2018-07-26T17:32:03.229Z,100558.72
2018-07-26T17:34:29.287Z,100563.86
2018-07-26T17:36:55.331Z,100558.02
2018-07-26T17:39:21.363Z,100563.45
2018-07-26T17:41:47.415Z,100567.59
2018-07-26T17:44:13.460Z,100568.70
2018-07-26T17:46:39.505Z,100560.81
2018-07-26T17:49:05.552Z,100557.19
2018-07-26T17:51:31.970Z,100556.60
2018-07-26T17:53:58.023Z,100555.44
2018-07-26T17:56:25.124Z,100559.14
2018-07-26T17:58:51.178Z,100558.55
2018-07-26T18:01:17.247Z,100567.14
2018-07-26T18:03:43.297Z,100568.96
2018-07-26T18:06:09.419Z,100572.01
2018-07-26T18:08:35.470Z,100572.45
2018-07-26T18:11:01.528Z,100576.73
2018-07-26T18:13:27.563Z,100576.84
2018-07-26T18:15:53.735Z,100573.67
2018-07-26T18:18:19.782Z,100579.17
2018-07-26T18:20:45.846Z,100584.59
2018-07-26T18:23:11.896Z,100583.88
2018-07-26T18:25:38.040Z,100584.81
2018-07-26T18:28:04.055Z,100582.36
2018-07-26T18:30:30.094Z,100590.36
2018-07-26T18:32:56.143Z,100587.25
2018-07-26T18:35:22.174Z,100591.78
2018-07-26T18:37:48.210Z,100599.09
2018-07-26T18:40:14.253Z,100598.14
2018-07-26T18:42:40.290Z,100597.30
2018-07-26T18:45:06.323Z,100599.98
2018-07-26T18:47:32.359Z,100599.91
2018-07-26T18:49:58.398Z,100606.95
2018-07-26T18:52:24.438Z,100607.94
2018-07-26T18:54:50.468Z,100616.54
2018-07-26T18:57:16.612Z,100615.73
2018-07-26T18:59:42.682Z,100625.41
2018-07-26T19:02:08.780Z,100628.05
2018-07-26T19:04:34.812Z,100627.22
2018-07-26T19:07:00.865Z,100620.89
2018-07-26T19:09:26.905Z,100632.98
2018-07-26T19:11:52.938Z,100632.14
2018-07-26T19:14:18.974Z,100638.94
2018-07-26T19:16:45.007Z,100647.46
2018-07-26T19:19:11.387Z,100646.15
2018-07-26T19:21:37.418Z,100656.61
2018-07-26T19:24:03.456Z,100658.36
2018-07-26T19:26:29.523Z,100664.73
2018-07-26T19:28:55.555Z,100661.59
2018-07-26T19:31:21.592Z,100662.86
2018-07-26T19:33:47.634Z,100663.63
2018-07-26T19:36:13.669Z,100668.77
2018-07-26T19:38:39.719Z,100672.10
2018-07-26T19:41:05.749Z,100676.28
2018-07-26T19:43:31.786Z,100678.22
2018-07-26T19:45:57.821Z,100680.62
2018-07-26T19:48:23.860Z,100690.87
2018-07-26T19:50:49.898Z,100687.97
2018-07-26T19:53:15.938Z,100691.20
2018-07-26T19:55:41.972Z,100694.39
2018-07-26T19:58:08.006Z,100691.92
2018-07-26T20:00:34.078Z,100695.58
2018-07-26T20:03:00.110Z,100698.70
2018-07-26T20:05:26.138Z,100695.34
2018-07-26T20:07:52.169Z,100695.86
2018-07-26T20:10:18.204Z,100705.59
2018-07-26T20:12:44.242Z,100705.69
2018-07-26T20:15:10.291Z,100706.20
2018-07-26T20:17:36.654Z,100711.53
2018-07-26T20:20:02.699Z,100708.59
2018-07-26T20:22:28.799Z,100709.99
2018-07-26T20:24:54.836Z,100709.18
2018-07-26T20:27:20.867Z,100709.27
2018-07-26T20:29:46.913Z,100709.33
2018-07-26T20:32:13.043Z,100711.64
2018-07-26T20:34:39.209Z,100711.27
2018-07-26T20:37:05.213Z,100711.41
2018-07-26T20:39:31.274Z,100709.73
2018-07-26T20:41:57.305Z,100710.73
2018-07-26T20:44:23.599Z,100717.42
2018-07-26T20:46:49.642Z,100717.97
2018-07-26T20:49:15.685Z,100718.87
2018-07-26T20:51:41.725Z,100720.72
2018-07-26T20:54:07.820Z,100723.80
2018-07-26T20:56:33.830Z,100725.59
2018-07-26T20:58:59.865Z,100724.39
2018-07-26T21:01:25.909Z,100731.41
2018-07-26T21:03:51.949Z,100734.98
2018-07-26T21:06:17.989Z,100739.81
2018-07-26T21:08:44.330Z,100740.33
2018-07-26T21:11:10.366Z,100736.86
2018-07-26T21:13:36.414Z,100743.00
2018-07-26T21:16:02.456Z,100742.60
2018-07-26T21:18:28.577Z,100746.57
2018-07-26T21:20:54.854Z,100742.66
2018-07-26T21:23:20.893Z,100743.12
2018-07-26T21:25:46.968Z,100742.72
2018-07-26T21:28:12.995Z,100746.23
2018-07-26T21:30:39.029Z,100753.70
2018-07-26T21:33:05.070Z,100748.48
2018-07-26T21:35:31.107Z,100757.67
2018-07-26T21:37:57.146Z,100760.77
2018-07-26T21:40:23.186Z,100759.50
2018-07-26T21:42:49.214Z,100761.26
2018-07-26T21:45:15.245Z,100753.48
2018-07-26T21:47:41.289Z,100760.46
2018-07-26T21:50:07.346Z,100763.11
2018-07-26T21:52:33.378Z,100762.69
2018-07-26T21:54:59.438Z,100761.81
2018-07-26T21:57:25.473Z,100767.06
2018-07-26T21:59:51.543Z,100766.23
2018-07-26T22:02:17.634Z,100769.30
2018-07-26T22:04:43.813Z,100770.21
2018-07-26T22:07:09.847Z,100773.26
2018-07-26T22:09:35.902Z,100774.58
2018-07-26T22:12:01.940Z,100772.41
2018-07-26T22:14:28.058Z,100777.66
2018-07-26T22:16:54.093Z,100781.12
2018-07-26T22:19:20.126Z,100785.05
2018-07-26T22:21:46.166Z,100789.83
2018-07-26T22:24:12.248Z,100800.28
2018-07-26T22:26:38.293Z,100795.91
2018-07-26T22:29:04.353Z,100797.22
2018-07-26T22:31:30.390Z,100796.80
2018-07-26T22:33:56.418Z,100799.42
2018-07-26T22:36:22.453Z,100805.05
2018-07-26T22:38:48.485Z,100800.27
2018-07-26T22:41:14.521Z,100805.48
2018-07-26T22:43:40.589Z,100804.16
2018-07-26T22:46:06.629Z,100805.88
2018-07-26T22:48:32.661Z,100811.53
2018-07-26T22:50:58.703Z,100807.59
2018-07-26T22:53:24.734Z,100804.97
2018-07-26T22:55:50.765Z,100805.83
2018-07-26T22:58:17.138Z,100805.80
2018-07-26T23:00:43.175Z,100808.84
2018-07-26T23:03:09.209Z,100808.40
2018-07-26T23:05:35.246Z,100808.83
2018-07-26T23:08:01.286Z,100807.08
2018-07-26T23:10:27.459Z,100812.26
2018-07-26T23:12:53.496Z,100810.94
2018-07-26T23:15:19.563Z,100810.50
2018-07-26T23:17:45.619Z,100812.20
2018-07-26T23:20:11.685Z,100806.99
2018-07-26T23:22:37.721Z,100807.83
2018-07-26T23:25:03.843Z,100810.84
2018-07-26T23:27:29.878Z,100810.37
2018-07-26T23:29:55.933Z,100808.18
2018-07-26T23:32:21.961Z,100804.67
2018-07-26T23:34:47.999Z,100802.91
2018-07-26T23:37:14.029Z,100801.98
2018-07-26T23:39:40.064Z,100802.83
2018-07-26T23:42:06.095Z,100805.39
2018-07-26T23:44:32.125Z,100804.48
2018-07-26T23:46:59.278Z,100808.80
2018-07-26T23:49:25.305Z,100807.05
2018-07-26T23:51:51.345Z,100807.00
2018-07-26T23:54:17.382Z,100801.34
2018-07-26T23:56:43.417Z,100803.48
2018-07-26T23:59:09.446Z,100802.14
